sensor_id;sensor_type;location;lat;lon;timestamp;pressure;altitude;pressure_sealevel;temperature
71897;BMP280;59767;51.344;12.362;2022-08-24T00:00:42;100721.22;;;18.81
71897;BMP280;59767;51.344;12.362;2022-08-24T00:03:46;100733.88;;;18.76
71897;BMP280;59767;51.344;12.362;2022-08-24T00:06:51;100727.16;;;18.68
71897;BMP280;59767;51.344;12.362;2022-08-24T00:09:54;100735.06;;;18.67
71897;BMP280;59767;51.344;12.362;2022-08-24T00:12:59;100729.94;;;18.60
71897;BMP280;59767;51.344;12.362;2022-08-24T00:16:05;100732.72;;;18.52
71897;BMP280;59767;51.344;12.362;2022-08-24T00:19:09;100732.16;;;18.50
71897;BMP280;59767;51.344;12.362;2022-08-24T00:22:14;100733.09;;;18.49
71897;BMP280;59767;51.344;12.362;2022-08-24T00:25:18;100734.72;;;18.50
71897;BMP280;59767;51.344;12.362;2022-08-24T00:28:23;100729.38;;;18.52
71897;BMP280;59767;51.344;12.362;2022-08-24T00:31:27;100723.03;;;18.48
71897;BMP280;59767;51.344;12.362;2022-08-24T00:34:32;100726.00;;;18.45
71897;BMP280;59767;51.344;12.362;2022-08-24T00:37:37;100731.94;;;18.45
71897;BMP280;59767;51.344;12.362;2022-08-24T00:40:45;100728.38;;;18.40
71897;BMP280;59767;51.344;12.362;2022-08-24T00:43:56;100726.81;;;18.39
71897;BMP280;59767;51.344;12.362;2022-08-24T00:47:05;100729.56;;;18.37
71897;BMP280;59767;51.344;12.362;2022-08-24T00:50:36;100733.13;;;18.36
71897;BMP280;59767;51.344;12.362;2022-08-24T00:53:48;100735.84;;;18.35
71897;BMP280;59767;51.344;12.362;2022-08-24T00:56:57;100737.25;;;18.31
71897;BMP280;59767;51.344;12.362;2022-08-24T01:00:16;100741.03;;;18.28
71897;BMP280;59767;51.344;12.362;2022-08-24T01:03:21;100751.66;;;18.25
71897;BMP280;59767;51.344;12.362;2022-08-24T01:06:26;100743.59;;;18.22
71897;BMP280;59767;51.344;12.362;2022-08-24T01:09:33;100744.94;;;18.18
71897;BMP280;59767;51.344;12.362;2022-08-24T01:12:39;100746.56;;;18.19
71897;BMP280;59767;51.344;12.362;2022-08-24T01:15:58;100752.06;;;18.16
71897;BMP280;59767;51.344;12.362;2022-08-24T01:19:36;100755.00;;;18.13
71897;BMP280;59767;51.344;12.362;2022-08-24T01:23:27;100748.88;;;18.07
71897;BMP280;59767;51.344;12.362;2022-08-24T01:26:44;100752.63;;;18.05
71897;BMP280;59767;51.344;12.362;2022-08-24T01:29:49;100746.72;;;18.04
71897;BMP280;59767;51.344;12.362;2022-08-24T01:32:55;100744.34;;;18.03
71897;BMP280;59767;51.344;12.362;2022-08-24T01:36:04;100742.00;;;18.01
71897;BMP280;59767;51.344;12.362;2022-08-24T01:39:23;100742.19;;;18.00
71897;BMP280;59767;51.344;12.362;2022-08-24T01:42:27;100744.91;;;17.98
71897;BMP280;59767;51.344;12.362;2022-08-24T01:45:33;100746.09;;;17.96
71897;BMP280;59767;51.344;12.362;2022-08-24T01:48:37;100742.72;;;17.95
71897;BMP280;59767;51.344;12.362;2022-08-24T01:51:41;100741.78;;;17.96
71897;BMP280;59767;51.344;12.362;2022-08-24T01:54:46;100743.94;;;17.99
71897;BMP280;59767;51.344;12.362;2022-08-24T01:57:52;100738.00;;;17.99
71897;BMP280;59767;51.344;12.362;2022-08-24T02:00:56;100738.63;;;18.01
71897;BMP280;59767;51.344;12.362;2022-08-24T02:04:02;100743.31;;;17.97
71897;BMP280;59767;51.344;12.362;2022-08-24T02:07:07;100743.53;;;17.96
71897;BMP280;59767;51.344;12.362;2022-08-24T02:10:13;100736.03;;;17.94
71897;BMP280;59767;51.344;12.362;2022-08-24T02:13:18;100733.25;;;17.89
71897;BMP280;59767;51.344;12.362;2022-08-24T02:16:21;100738.56;;;17.88
71897;BMP280;59767;51.344;12.362;2022-08-24T02:19:26;100735.41;;;17.86
71897;BMP280;59767;51.344;12.362;2022-08-24T02:22:31;100742.50;;;17.84
71897;BMP280;59767;51.344;12.362;2022-08-24T02:25:35;100746.25;;;17.81
71897;BMP280;59767;51.344;12.362;2022-08-24T02:28:40;100739.38;;;17.82
71897;BMP280;59767;51.344;12.362;2022-08-24T02:31:44;100739.72;;;17.79
71897;BMP280;59767;51.344;12.362;2022-08-24T02:34:48;100738.16;;;17.78
71897;BMP280;59767;51.344;12.362;2022-08-24T02:37:57;100732.25;;;17.77
71897;BMP280;59767;51.344;12.362;2022-08-24T02:41:02;100743.09;;;17.73
71897;BMP280;59767;51.344;12.362;2022-08-24T02:44:06;100741.50;;;17.72
71897;BMP280;59767;51.344;12.362;2022-08-24T02:47:10;100743.44;;;17.70
71897;BMP280;59767;51.344;12.362;2022-08-24T02:50:16;100744.63;;;17.67
71897;BMP280;59767;51.344;12.362;2022-08-24T02:53:21;100744.41;;;17.62
71897;BMP280;59767;51.344;12.362;2022-08-24T02:56:26;100744.22;;;17.64
71897;BMP280;59767;51.344;12.362;2022-08-24T02:59:33;100751.94;;;17.64
71897;BMP280;59767;51.344;12.362;2022-08-24T03:02:38;100746.56;;;17.59
71897;BMP280;59767;51.344;12.362;2022-08-24T03:05:42;100754.25;;;17.59
71897;BMP280;59767;51.344;12.362;2022-08-24T03:08:46;100758.81;;;17.57
71897;BMP280;59767;51.344;12.362;2022-08-24T03:11:59;100762.53;;;17.54
71897;BMP280;59767;51.344;12.362;2022-08-24T03:15:05;100760.16;;;17.53
71897;BMP280;59767;51.344;12.362;2022-08-24T03:18:10;100759.75;;;17.49
71897;BMP280;59767;51.344;12.362;2022-08-24T03:21:18;100764.28;;;17.47
71897;BMP280;59767;51.344;12.362;2022-08-24T03:24:21;100763.66;;;17.45
71897;BMP280;59767;51.344;12.362;2022-08-24T03:27:26;100762.50;;;17.48
71897;BMP280;59767;51.344;12.362;2022-08-24T03:30:30;100766.44;;;17.44
71897;BMP280;59767;51.344;12.362;2022-08-24T03:33:36;100771.94;;;17.41
71897;BMP280;59767;51.344;12.362;2022-08-24T03:36:42;100765.81;;;17.42
71897;BMP280;59767;51.344;12.362;2022-08-24T03:39:49;100769.94;;;17.43
71897;BMP280;59767;51.344;12.362;2022-08-24T03:42:54;100765.22;;;17.40
71897;BMP280;59767;51.344;12.362;2022-08-24T03:45:58;100763.81;;;17.37
71897;BMP280;59767;51.344;12.362;2022-08-24T03:49:06;100771.69;;;17.36
71897;BMP280;59767;51.344;12.362;2022-08-24T03:52:11;100775.59;;;17.32
71897;BMP280;59767;51.344;12.362;2022-08-24T03:55:16;100770.31;;;17.33
71897;BMP280;59767;51.344;12.362;2022-08-24T03:58:20;100769.72;;;17.31
71897;BMP280;59767;51.344;12.362;2022-08-24T04:01:24;100772.25;;;17.31
71897;BMP280;59767;51.344;12.362;2022-08-24T04:04:29;100781.94;;;17.29
71897;BMP280;59767;51.344;12.362;2022-08-24T04:07:34;100780.34;;;17.28
71897;BMP280;59767;51.344;12.362;2022-08-24T04:10:43;100781.31;;;17.27
71897;BMP280;59767;51.344;12.362;2022-08-24T04:13:51;100782.69;;;17.23
71897;BMP280;59767;51.344;12.362;2022-08-24T04:16:55;100790.53;;;17.22
71897;BMP280;59767;51.344;12.362;2022-08-24T04:20:01;100794.69;;;17.23
71897;BMP280;59767;51.344;12.362;2022-08-24T04:23:07;100793.53;;;17.25
71897;BMP280;59767;51.344;12.362;2022-08-24T04:26:17;100791.00;;;17.25
71897;BMP280;59767;51.344;12.362;2022-08-24T04:29:42;100797.47;;;17.28
71897;BMP280;59767;51.344;12.362;2022-08-24T04:32:46;100801.03;;;17.27
71897;BMP280;59767;51.344;12.362;2022-08-24T04:35:51;100792.97;;;17.30
71897;BMP280;59767;51.344;12.362;2022-08-24T04:38:55;100796.50;;;17.29
71897;BMP280;59767;51.344;12.362;2022-08-24T04:41:59;100803.03;;;17.31
71897;BMP280;59767;51.344;12.362;2022-08-24T04:45:06;100812.09;;;17.34
71897;BMP280;59767;51.344;12.362;2022-08-24T04:48:12;100814.47;;;17.35
71897;BMP280;59767;51.344;12.362;2022-08-24T04:51:18;100815.06;;;17.37
71897;BMP280;59767;51.344;12.362;2022-08-24T04:54:23;100817.28;;;17.40
71897;BMP280;59767;51.344;12.362;2022-08-24T04:57:27;100825.97;;;17.46
71897;BMP280;59767;51.344;12.362;2022-08-24T05:00:32;100817.53;;;17.52
71897;BMP280;59767;51.344;12.362;2022-08-24T05:03:36;100826.03;;;17.59
71897;BMP280;59767;51.344;12.362;2022-08-24T05:06:40;100822.94;;;17.63
71897;BMP280;59767;51.344;12.362;2022-08-24T05:09:45;100813.06;;;17.67
71897;BMP280;59767;51.344;12.362;2022-08-24T05:12:49;100817.78;;;17.70
71897;BMP280;59767;51.344;12.362;2022-08-24T05:15:53;100824.53;;;17.71
71897;BMP280;59767;51.344;12.362;2022-08-24T05:18:57;100823.34;;;17.73
71897;BMP280;59767;51.344;12.362;2022-08-24T05:22:01;100832.50;;;17.82
71897;BMP280;59767;51.344;12.362;2022-08-24T05:25:06;100821.03;;;17.85
71897;BMP280;59767;51.344;12.362;2022-08-24T05:28:10;100819.50;;;17.90
71897;BMP280;59767;51.344;12.362;2022-08-24T05:31:19;100823.22;;;17.94
71897;BMP280;59767;51.344;12.362;2022-08-24T05:34:24;100825.03;;;18.00
71897;BMP280;59767;51.344;12.362;2022-08-24T05:37:28;100833.75;;;18.06
71897;BMP280;59767;51.344;12.362;2022-08-24T05:40:32;100834.94;;;18.10
71897;BMP280;59767;51.344;12.362;2022-08-24T05:43:37;100836.50;;;18.17
71897;BMP280;59767;51.344;12.362;2022-08-24T05:46:41;100845.22;;;18.23
71897;BMP280;59767;51.344;12.362;2022-08-24T05:49:46;100841.88;;;18.29
71897;BMP280;59767;51.344;12.362;2022-08-24T05:52:51;100846.44;;;18.40
71897;BMP280;59767;51.344;12.362;2022-08-24T05:55:55;100851.19;;;18.49
71897;BMP280;59767;51.344;12.362;2022-08-24T05:58:59;100849.25;;;18.58
71897;BMP280;59767;51.344;12.362;2022-08-24T06:02:03;100850.03;;;18.71
71897;BMP280;59767;51.344;12.362;2022-08-24T06:05:08;100847.06;;;18.81
71897;BMP280;59767;51.344;12.362;2022-08-24T06:08:13;100848.88;;;18.87
71897;BMP280;59767;51.344;12.362;2022-08-24T06:11:29;100839.97;;;18.96
71897;BMP280;59767;51.344;12.362;2022-08-24T06:14:34;100853.59;;;19.03
71897;BMP280;59767;51.344;12.362;2022-08-24T06:17:38;100856.34;;;19.14
71897;BMP280;59767;51.344;12.362;2022-08-24T06:20:42;100856.13;;;19.29
71897;BMP280;59767;51.344;12.362;2022-08-24T06:23:49;100848.38;;;19.48
71897;BMP280;59767;51.344;12.362;2022-08-24T06:26:54;100841.06;;;19.52
71897;BMP280;59767;51.344;12.362;2022-08-24T06:30:16;100847.91;;;19.70
71897;BMP280;59767;51.344;12.362;2022-08-24T06:33:21;100848.66;;;19.77
71897;BMP280;59767;51.344;12.362;2022-08-24T06:36:26;100849.84;;;19.81
71897;BMP280;59767;51.344;12.362;2022-08-24T06:39:30;100849.59;;;19.89
71897;BMP280;59767;51.344;12.362;2022-08-24T06:42:34;100850.94;;;19.98
71897;BMP280;59767;51.344;12.362;2022-08-24T06:45:42;100856.84;;;20.05
71897;BMP280;59767;51.344;12.362;2022-08-24T06:48:47;100855.22;;;20.11
71897;BMP280;59767;51.344;12.362;2022-08-24T06:51:52;100857.09;;;20.28
71897;BMP280;59767;51.344;12.362;2022-08-24T06:54:56;100866.00;;;20.32
71897;BMP280;59767;51.344;12.362;2022-08-24T06:58:00;100864.56;;;20.36
71897;BMP280;59767;51.344;12.362;2022-08-24T07:01:14;100864.50;;;20.43
71897;BMP280;59767;51.344;12.362;2022-08-24T07:04:19;100864.63;;;20.54
71897;BMP280;59767;51.344;12.362;2022-08-24T07:07:23;100865.94;;;20.63
71897;BMP280;59767;51.344;12.362;2022-08-24T07:10:27;100869.56;;;20.80
71897;BMP280;59767;51.344;12.362;2022-08-24T07:13:32;100865.75;;;20.89
71897;BMP280;59767;51.344;12.362;2022-08-24T07:16:37;100862.91;;;20.97
71897;BMP280;59767;51.344;12.362;2022-08-24T07:19:41;100858.44;;;21.04
71897;BMP280;59767;51.344;12.362;2022-08-24T07:22:46;100865.91;;;21.12
71897;BMP280;59767;51.344;12.362;2022-08-24T07:25:50;100861.91;;;21.16
71897;BMP280;59767;51.344;12.362;2022-08-24T07:29:02;100867.72;;;21.30
71897;BMP280;59767;51.344;12.362;2022-08-24T07:32:09;100866.63;;;21.37
71897;BMP280;59767;51.344;12.362;2022-08-24T07:35:13;100872.34;;;21.39
71897;BMP280;59767;51.344;12.362;2022-08-24T07:38:17;100878.78;;;21.48
71897;BMP280;59767;51.344;12.362;2022-08-24T07:41:22;100881.34;;;21.66
71897;BMP280;59767;51.344;12.362;2022-08-24T07:44:49;100873.47;;;21.79
71897;BMP280;59767;51.344;12.362;2022-08-24T07:47:53;100874.78;;;22.00
71897;BMP280;59767;51.344;12.362;2022-08-24T07:51:06;100888.75;;;22.22
71897;BMP280;59767;51.344;12.362;2022-08-24T07:54:10;100880.00;;;22.34
71897;BMP280;59767;51.344;12.362;2022-08-24T07:57:16;100884.88;;;22.54
71897;BMP280;59767;51.344;12.362;2022-08-24T08:00:20;100880.94;;;22.63
71897;BMP280;59767;51.344;12.362;2022-08-24T08:03:25;100882.94;;;22.60
71897;BMP280;59767;51.344;12.362;2022-08-24T08:06:32;100888.78;;;22.67
71897;BMP280;59767;51.344;12.362;2022-08-24T08:09:37;100891.38;;;22.90
71897;BMP280;59767;51.344;12.362;2022-08-24T08:12:41;100888.34;;;22.93
71897;BMP280;59767;51.344;12.362;2022-08-24T08:15:45;100878.56;;;22.95
71897;BMP280;59767;51.344;12.362;2022-08-24T08:18:50;100883.19;;;22.93
71897;BMP280;59767;51.344;12.362;2022-08-24T08:22:11;100891.97;;;23.04
71897;BMP280;59767;51.344;12.362;2022-08-24T08:25:34;100890.44;;;23.31
71897;BMP280;59767;51.344;12.362;2022-08-24T08:28:41;100885.00;;;23.72
71897;BMP280;59767;51.344;12.362;2022-08-24T08:31:46;100880.75;;;23.66
71897;BMP280;59767;51.344;12.362;2022-08-24T08:34:50;100887.72;;;23.65
71897;BMP280;59767;51.344;12.362;2022-08-24T08:37:54;100890.06;;;23.67
71897;BMP280;59767;51.344;12.362;2022-08-24T08:44:54;100891.84;;;23.78
71897;BMP280;59767;51.344;12.362;2022-08-24T08:54:58;100886.72;;;23.83
71897;BMP280;59767;51.344;12.362;2022-08-24T08:58:22;100883.38;;;23.82
71897;BMP280;59767;51.344;12.362;2022-08-24T09:09:08;100879.09;;;24.21
71897;BMP280;59767;51.344;12.362;2022-08-24T09:12:39;100887.16;;;24.08
71897;BMP280;59767;51.344;12.362;2022-08-24T09:23:12;100876.25;;;24.39
71897;BMP280;59767;51.344;12.362;2022-08-24T09:29:39;100869.09;;;24.46
71897;BMP280;59767;51.344;12.362;2022-08-24T09:33:14;100874.63;;;24.16
71897;BMP280;59767;51.344;12.362;2022-08-24T09:43:18;100868.72;;;23.88
71897;BMP280;59767;51.344;12.362;2022-08-24T09:56:46;100854.19;;;24.74
71897;BMP280;59767;51.344;12.362;2022-08-24T10:03:49;100861.88;;;24.48
71897;BMP280;59767;51.344;12.362;2022-08-24T10:11:04;100855.41;;;24.67
71897;BMP280;59767;51.344;12.362;2022-08-24T10:24:38;100853.78;;;25.25
71897;BMP280;59767;51.344;12.362;2022-08-24T10:31:26;100835.94;;;25.33
71897;BMP280;59767;51.344;12.362;2022-08-24T10:34:38;100833.94;;;25.67
71897;BMP280;59767;51.344;12.362;2022-08-24T10:41:42;100828.63;;;25.25
71897;BMP280;59767;51.344;12.362;2022-08-24T10:45:31;100828.69;;;25.09
71897;BMP280;59767;51.344;12.362;2022-08-24T10:55:23;100818.53;;;25.07
71897;BMP280;59767;51.344;12.362;2022-08-24T11:02:11;100821.88;;;25.29
71897;BMP280;59767;51.344;12.362;2022-08-24T11:05:37;100826.84;;;25.57
71897;BMP280;59767;51.344;12.362;2022-08-24T11:09:09;100836.63;;;25.50
71897;BMP280;59767;51.344;12.362;2022-08-24T11:16:04;100837.44;;;25.51
71897;BMP280;59767;51.344;12.362;2022-08-24T11:19:16;100832.72;;;25.79
71897;BMP280;59767;51.344;12.362;2022-08-24T11:22:33;100838.00;;;25.89
71897;BMP280;59767;51.344;12.362;2022-08-24T11:26:05;100828.91;;;25.55
71897;BMP280;59767;51.344;12.362;2022-08-24T11:29:07;100831.81;;;25.37
71897;BMP280;59767;51.344;12.362;2022-08-24T11:32:25;100829.38;;;25.26
71897;BMP280;59767;51.344;12.362;2022-08-24T11:38:36;100827.31;;;25.01
71897;BMP280;59767;51.344;12.362;2022-08-24T11:41:59;100827.13;;;25.08
71897;BMP280;59767;51.344;12.362;2022-08-24T11:45:11;100831.22;;;25.04
71897;BMP280;59767;51.344;12.362;2022-08-24T11:58:19;100830.69;;;25.81
71897;BMP280;59767;51.344;12.362;2022-08-24T12:01:50;100829.09;;;26.17
71897;BMP280;59767;51.344;12.362;2022-08-24T12:05:14;100829.56;;;26.09
71897;BMP280;59767;51.344;12.362;2022-08-24T12:09:12;100825.50;;;25.81
71897;BMP280;59767;51.344;12.362;2022-08-24T12:15:42;100815.38;;;25.53
71897;BMP280;59767;51.344;12.362;2022-08-24T12:19:05;100821.84;;;25.82
71897;BMP280;59767;51.344;12.362;2022-08-24T12:22:12;100817.88;;;26.06
71897;BMP280;59767;51.344;12.362;2022-08-24T12:25:18;100825.59;;;26.01
71897;BMP280;59767;51.344;12.362;2022-08-24T12:28:50;100809.41;;;25.84
71897;BMP280;59767;51.344;12.362;2022-08-24T12:32:09;100811.22;;;25.84
71897;BMP280;59767;51.344;12.362;2022-08-24T12:35:20;100801.25;;;26.07
71897;BMP280;59767;51.344;12.362;2022-08-24T12:41:35;100792.22;;;26.25
71897;BMP280;59767;51.344;12.362;2022-08-24T12:44:57;100782.41;;;26.32
71897;BMP280;59767;51.344;12.362;2022-08-24T12:48:21;100794.69;;;26.46
71897;BMP280;59767;51.344;12.362;2022-08-24T12:51:38;100784.31;;;26.56
71897;BMP280;59767;51.344;12.362;2022-08-24T12:58:45;100794.94;;;26.50
71897;BMP280;59767;51.344;12.362;2022-08-24T13:05:22;100800.94;;;26.04
71897;BMP280;59767;51.344;12.362;2022-08-24T13:08:36;100797.09;;;26.11
71897;BMP280;59767;51.344;12.362;2022-08-24T13:11:43;100799.19;;;26.14
71897;BMP280;59767;51.344;12.362;2022-08-24T13:14:50;100794.22;;;26.08
71897;BMP280;59767;51.344;12.362;2022-08-24T13:21:15;100795.03;;;26.18
71897;BMP280;59767;51.344;12.362;2022-08-24T13:37:20;100789.59;;;26.76
71897;BMP280;59767;51.344;12.362;2022-08-24T13:40:26;100788.03;;;26.90
71897;BMP280;59767;51.344;12.362;2022-08-24T13:43:41;100786.56;;;27.14
71897;BMP280;59767;51.344;12.362;2022-08-24T13:50:30;100786.00;;;26.92
71897;BMP280;59767;51.344;12.362;2022-08-24T13:53:50;100780.78;;;26.92
71897;BMP280;59767;51.344;12.362;2022-08-24T13:57:03;100777.41;;;26.91
71897;BMP280;59767;51.344;12.362;2022-08-24T14:07:12;100771.16;;;26.97
71897;BMP280;59767;51.344;12.362;2022-08-24T14:10:41;100771.44;;;27.01
71897;BMP280;59767;51.344;12.362;2022-08-24T14:14:09;100776.88;;;27.14
71897;BMP280;59767;51.344;12.362;2022-08-24T14:20:57;100771.94;;;26.98
71897;BMP280;59767;51.344;12.362;2022-08-24T14:24:30;100768.78;;;26.96
71897;BMP280;59767;51.344;12.362;2022-08-24T14:27:50;100764.88;;;26.83
71897;BMP280;59767;51.344;12.362;2022-08-24T14:34:29;100764.31;;;26.71
71897;BMP280;59767;51.344;12.362;2022-08-24T14:38:13;100759.59;;;26.54
71897;BMP280;59767;51.344;12.362;2022-08-24T14:45:06;100755.19;;;26.59
71897;BMP280;59767;51.344;12.362;2022-08-24T14:48:20;100757.03;;;26.68
71897;BMP280;59767;51.344;12.362;2022-08-24T14:51:40;100756.53;;;26.76
71897;BMP280;59767;51.344;12.362;2022-08-24T14:55:00;100759.16;;;26.76
71897;BMP280;59767;51.344;12.362;2022-08-24T14:58:23;100752.66;;;26.84
71897;BMP280;59767;51.344;12.362;2022-08-24T15:01:42;100751.59;;;26.75
71897;BMP280;59767;51.344;12.362;2022-08-24T15:04:50;100757.06;;;26.78
71897;BMP280;59767;51.344;12.362;2022-08-24T15:08:02;100751.91;;;26.88
71897;BMP280;59767;51.344;12.362;2022-08-24T15:11:12;100740.69;;;26.88
71897;BMP280;59767;51.344;12.362;2022-08-24T15:14:45;100750.03;;;26.69
71897;BMP280;59767;51.344;12.362;2022-08-24T15:21:22;100735.47;;;26.78
71897;BMP280;59767;51.344;12.362;2022-08-24T15:24:42;100739.38;;;26.75
71897;BMP280;59767;51.344;12.362;2022-08-24T15:27:56;100740.19;;;26.76
71897;BMP280;59767;51.344;12.362;2022-08-24T15:31:08;100731.53;;;26.61
71897;BMP280;59767;51.344;12.362;2022-08-24T15:34:13;100726.34;;;26.61
71897;BMP280;59767;51.344;12.362;2022-08-24T15:37:31;100735.50;;;26.73
71897;BMP280;59767;51.344;12.362;2022-08-24T15:40:35;100732.56;;;26.60
71897;BMP280;59767;51.344;12.362;2022-08-24T15:46:58;100731.25;;;26.52
71897;BMP280;59767;51.344;12.362;2022-08-24T15:53:28;100726.31;;;26.51
71897;BMP280;59767;51.344;12.362;2022-08-24T15:56:45;100730.75;;;26.55
71897;BMP280;59767;51.344;12.362;2022-08-24T15:59:51;100734.94;;;26.71
71897;BMP280;59767;51.344;12.362;2022-08-24T16:03:59;100726.31;;;26.46
71897;BMP280;59767;51.344;12.362;2022-08-24T16:06:46;100723.44;;;26.42
71897;BMP280;59767;51.344;12.362;2022-08-24T16:10:04;100724.97;;;26.38
71897;BMP280;59767;51.344;12.362;2022-08-24T16:16:32;100714.00;;;26.26
71897;BMP280;59767;51.344;12.362;2022-08-24T16:19:37;100717.91;;;26.24
71897;BMP280;59767;51.344;12.362;2022-08-24T16:22:57;100715.56;;;26.22
71897;BMP280;59767;51.344;12.362;2022-08-24T16:32:52;100723.88;;;26.19
71897;BMP280;59767;51.344;12.362;2022-08-24T16:35:58;100724.09;;;26.13
71897;BMP280;59767;51.344;12.362;2022-08-24T16:39:06;100728.00;;;26.15
71897;BMP280;59767;51.344;12.362;2022-08-24T16:42:27;100717.91;;;26.24
71897;BMP280;59767;51.344;12.362;2022-08-24T16:45:32;100717.13;;;26.28
71897;BMP280;59767;51.344;12.362;2022-08-24T16:48:39;100714.53;;;26.23
71897;BMP280;59767;51.344;12.362;2022-08-24T16:51:43;100715.78;;;26.16
71897;BMP280;59767;51.344;12.362;2022-08-24T16:54:48;100726.47;;;26.19
71897;BMP280;59767;51.344;12.362;2022-08-24T16:57:53;100720.47;;;26.19
71897;BMP280;59767;51.344;12.362;2022-08-24T17:00:59;100716.34;;;26.28
71897;BMP280;59767;51.344;12.362;2022-08-24T17:04:04;100726.66;;;26.08
71897;BMP280;59767;51.344;12.362;2022-08-24T17:07:11;100722.50;;;26.07
71897;BMP280;59767;51.344;12.362;2022-08-24T17:10:17;100727.16;;;26.00
71897;BMP280;59767;51.344;12.362;2022-08-24T17:13:25;100731.50;;;25.89
71897;BMP280;59767;51.344;12.362;2022-08-24T17:16:48;100722.63;;;25.85
71897;BMP280;59767;51.344;12.362;2022-08-24T17:19:54;100725.75;;;25.82
71897;BMP280;59767;51.344;12.362;2022-08-24T17:22:58;100725.94;;;25.76
71897;BMP280;59767;51.344;12.362;2022-08-24T17:26:06;100726.66;;;25.66
71897;BMP280;59767;51.344;12.362;2022-08-24T17:29:23;100727.19;;;25.63
71897;BMP280;59767;51.344;12.362;2022-08-24T17:32:27;100732.84;;;25.55
71897;BMP280;59767;51.344;12.362;2022-08-24T17:35:31;100732.00;;;25.50
71897;BMP280;59767;51.344;12.362;2022-08-24T17:38:42;100729.25;;;25.61
71897;BMP280;59767;51.344;12.362;2022-08-24T17:41:53;100732.44;;;25.73
71897;BMP280;59767;51.344;12.362;2022-08-24T17:44:57;100737.53;;;25.58
71897;BMP280;59767;51.344;12.362;2022-08-24T17:48:02;100739.94;;;25.65
71897;BMP280;59767;51.344;12.362;2022-08-24T17:51:06;100741.25;;;25.72
71897;BMP280;59767;51.344;12.362;2022-08-24T17:54:11;100741.81;;;25.74
71897;BMP280;59767;51.344;12.362;2022-08-24T17:57:15;100741.97;;;25.63
71897;BMP280;59767;51.344;12.362;2022-08-24T18:00:20;100756.53;;;25.64
71897;BMP280;59767;51.344;12.362;2022-08-24T18:03:24;100752.34;;;25.63
71897;BMP280;59767;51.344;12.362;2022-08-24T18:06:30;100755.84;;;25.47
71897;BMP280;59767;51.344;12.362;2022-08-24T18:09:46;100759.44;;;25.41
71897;BMP280;59767;51.344;12.362;2022-08-24T18:12:51;100766.91;;;25.32
71897;BMP280;59767;51.344;12.362;2022-08-24T18:15:55;100771.72;;;25.19
71897;BMP280;59767;51.344;12.362;2022-08-24T18:18:59;100768.75;;;25.10
71897;BMP280;59767;51.344;12.362;2022-08-24T18:22:05;100769.38;;;25.17
71897;BMP280;59767;51.344;12.362;2022-08-24T18:25:17;100783.13;;;25.18
71897;BMP280;59767;51.344;12.362;2022-08-24T18:28:22;100777.75;;;25.03
71897;BMP280;59767;51.344;12.362;2022-08-24T18:31:27;100781.16;;;25.03
71897;BMP280;59767;51.344;12.362;2022-08-24T18:34:32;100790.69;;;24.98
71897;BMP280;59767;51.344;12.362;2022-08-24T18:37:36;100787.75;;;24.89
71897;BMP280;59767;51.344;12.362;2022-08-24T18:40:41;100795.41;;;24.80
71897;BMP280;59767;51.344;12.362;2022-08-24T18:43:55;100788.03;;;24.93
71897;BMP280;59767;51.344;12.362;2022-08-24T18:46:59;100794.88;;;24.78
71897;BMP280;59767;51.344;12.362;2022-08-24T18:50:07;100801.84;;;24.77
71897;BMP280;59767;51.344;12.362;2022-08-24T18:53:14;100806.25;;;24.77
71897;BMP280;59767;51.344;12.362;2022-08-24T18:56:19;100804.69;;;24.76
71897;BMP280;59767;51.344;12.362;2022-08-24T18:59:23;100802.47;;;24.63
71897;BMP280;59767;51.344;12.362;2022-08-24T19:02:27;100808.72;;;24.67
71897;BMP280;59767;51.344;12.362;2022-08-24T19:05:36;100810.00;;;24.64
71897;BMP280;59767;51.344;12.362;2022-08-24T19:08:41;100815.28;;;24.53
71897;BMP280;59767;51.344;12.362;2022-08-24T19:11:45;100813.91;;;24.45
71897;BMP280;59767;51.344;12.362;2022-08-24T19:14:53;100812.44;;;24.33
71897;BMP280;59767;51.344;12.362;2022-08-24T19:17:58;100813.31;;;24.22
71897;BMP280;59767;51.344;12.362;2022-08-24T19:21:02;100821.38;;;24.25
71897;BMP280;59767;51.344;12.362;2022-08-24T19:24:06;100814.41;;;24.26
71897;BMP280;59767;51.344;12.362;2022-08-24T19:27:11;100814.22;;;24.32
71897;BMP280;59767;51.344;12.362;2022-08-24T19:30:16;100807.66;;;24.25
71897;BMP280;59767;51.344;12.362;2022-08-24T19:33:32;100814.00;;;24.34
71897;BMP280;59767;51.344;12.362;2022-08-24T19:36:36;100805.81;;;24.25
71897;BMP280;59767;51.344;12.362;2022-08-24T19:39:40;100811.25;;;24.24
71897;BMP280;59767;51.344;12.362;2022-08-24T19:42:45;100811.88;;;24.14
71897;BMP280;59767;51.344;12.362;2022-08-24T19:45:53;100811.66;;;24.16
71897;BMP280;59767;51.344;12.362;2022-08-24T19:49:08;100813.94;;;24.12
71897;BMP280;59767;51.344;12.362;2022-08-24T19:52:13;100809.56;;;23.96
71897;BMP280;59767;51.344;12.362;2022-08-24T19:55:17;100820.59;;;23.92
71897;BMP280;59767;51.344;12.362;2022-08-24T19:58:34;100809.06;;;23.83
71897;BMP280;59767;51.344;12.362;2022-08-24T20:01:41;100815.13;;;23.72
71897;BMP280;59767;51.344;12.362;2022-08-24T20:04:45;100809.97;;;23.60
71897;BMP280;59767;51.344;12.362;2022-08-24T20:07:50;100815.53;;;23.52
71897;BMP280;59767;51.344;12.362;2022-08-24T20:10:54;100810.41;;;23.41
71897;BMP280;59767;51.344;12.362;2022-08-24T20:14:01;100817.06;;;23.37
71897;BMP280;59767;51.344;12.362;2022-08-24T20:17:05;100820.81;;;23.29
71897;BMP280;59767;51.344;12.362;2022-08-24T20:20:11;100822.28;;;23.25
71897;BMP280;59767;51.344;12.362;2022-08-24T20:23:17;100824.78;;;23.20
71897;BMP280;59767;51.344;12.362;2022-08-24T20:26:22;100824.00;;;23.08
71897;BMP280;59767;51.344;12.362;2022-08-24T20:29:28;100822.13;;;23.04